sensor_id;sensor_type;location;lat;lon;timestamp;temperature;humidity
9371;DHT22;4725;48.384;8.984;2023-11-18T00:01:35;3.60;99.90
9371;DHT22;4725;48.384;8.984;2023-11-18T00:04:02;3.50;99.90
9371;DHT22;4725;48.384;8.984;2023-11-18T00:06:29;3.50;99.90
9371;DHT22;4725;48.384;8.984;2023-11-18T00:08:56;3.50;99.90
9371;DHT22;4725;48.384;8.984;2023-11-18T00:11:23;3.50;99.90
9371;DHT22;4725;48.384;8.984;2023-11-18T00:13:51;3.50;99.90
9371;DHT22;4725;48.384;8.984;2023-11-18T00:16:18;3.50;99.90
9371;DHT22;4725;48.384;8.984;2023-11-18T00:18:45;3.50;99.90
9371;DHT22;4725;48.384;8.984;2023-11-18T00:21:12;3.50;99.90
9371;DHT22;4725;48.384;8.984;2023-11-18T00:23:38;3.50;99.90
9371;DHT22;4725;48.384;8.984;2023-11-18T00:26:05;3.50;99.90
9371;DHT22;4725;48.384;8.984;2023-11-18T00:28:34;3.50;99.90
9371;DHT22;4725;48.384;8.984;2023-11-18T00:31:02;3.50;99.90
9371;DHT22;4725;48.384;8.984;2023-11-18T00:33:29;3.50;99.90
9371;DHT22;4725;48.384;8.984;2023-11-18T00:35:57;3.40;99.90
9371;DHT22;4725;48.384;8.984;2023-11-18T00:38:25;3.50;99.90
9371;DHT22;4725;48.384;8.984;2023-11-18T00:40:52;3.40;99.90
9371;DHT22;4725;48.384;8.984;2023-11-18T00:43:19;3.40;99.90
9371;DHT22;4725;48.384;8.984;2023-11-18T00:45:46;3.40;99.90
9371;DHT22;4725;48.384;8.984;2023-11-18T00:48:14;3.40;99.90
9371;DHT22;4725;48.384;8.984;2023-11-18T00:50:41;3.40;99.90
9371;DHT22;4725;48.384;8.984;2023-11-18T00:53:08;3.40;99.90
9371;DHT22;4725;48.384;8.984;2023-11-18T00:55:35;3.40;99.90
9371;DHT22;4725;48.384;8.984;2023-11-18T00:58:02;3.40;99.90
9371;DHT22;4725;48.384;8.984;2023-11-18T01:00:30;3.40;99.90
9371;DHT22;4725;48.384;8.984;2023-11-18T01:02:57;3.40;99.90
9371;DHT22;4725;48.384;8.984;2023-11-18T01:05:25;5.10;99.90
9371;DHT22;4725;48.384;8.984;2023-11-18T01:07:52;3.50;99.90
9371;DHT22;4725;48.384;8.984;2023-11-18T01:10:19;3.50;99.90
9371;DHT22;4725;48.384;8.984;2023-11-18T01:12:46;3.40;99.90
9371;DHT22;4725;48.384;8.984;2023-11-18T01:15:14;3.40;99.90
9371;DHT22;4725;48.384;8.984;2023-11-18T01:17:41;3.40;99.90
9371;DHT22;4725;48.384;8.984;2023-11-18T01:20:08;3.50;99.90
9371;DHT22;4725;48.384;8.984;2023-11-18T01:22:38;3.50;99.90
9371;DHT22;4725;48.384;8.984;2023-11-18T01:25:05;3.40;99.90
9371;DHT22;4725;48.384;8.984;2023-11-18T01:27:34;3.40;99.90
9371;DHT22;4725;48.384;8.984;2023-11-18T01:30:00;3.50;99.90
9371;DHT22;4725;48.384;8.984;2023-11-18T01:32:26;4.20;99.90
9371;DHT22;4725;48.384;8.984;2023-11-18T01:34:55;3.40;99.90
9371;DHT22;4725;48.384;8.984;2023-11-18T01:37:22;3.30;99.90
9371;DHT22;4725;48.384;8.984;2023-11-18T01:39:51;3.40;99.90
9371;DHT22;4725;48.384;8.984;2023-11-18T01:42:18;3.30;99.90
9371;DHT22;4725;48.384;8.984;2023-11-18T01:44:45;3.40;99.90
9371;DHT22;4725;48.384;8.984;2023-11-18T01:47:12;3.50;99.90
9371;DHT22;4725;48.384;8.984;2023-11-18T01:49:40;3.50;99.90
9371;DHT22;4725;48.384;8.984;2023-11-18T01:52:08;1.20;99.90
9371;DHT22;4725;48.384;8.984;2023-11-18T01:54:37;3.50;99.90
9371;DHT22;4725;48.384;8.984;2023-11-18T01:57:06;3.40;99.90
9371;DHT22;4725;48.384;8.984;2023-11-18T01:59:35;3.40;99.90
9371;DHT22;4725;48.384;8.984;2023-11-18T02:02:04;3.30;99.90
9371;DHT22;4725;48.384;8.984;2023-11-18T02:04:31;3.40;99.90
9371;DHT22;4725;48.384;8.984;2023-11-18T02:06:58;3.30;99.90
9371;DHT22;4725;48.384;8.984;2023-11-18T02:09:29;3.30;99.90
9371;DHT22;4725;48.384;8.984;2023-11-18T02:12:00;3.30;99.90
9371;DHT22;4725;48.384;8.984;2023-11-18T02:14:33;3.30;99.90
9371;DHT22;4725;48.384;8.984;2023-11-18T02:17:02;3.30;99.90
9371;DHT22;4725;48.384;8.984;2023-11-18T02:19:31;3.30;99.90
9371;DHT22;4725;48.384;8.984;2023-11-18T02:21:58;3.30;99.90
9371;DHT22;4725;48.384;8.984;2023-11-18T02:24:27;3.40;99.90
9371;DHT22;4725;48.384;8.984;2023-11-18T02:26:58;3.30;99.90
9371;DHT22;4725;48.384;8.984;2023-11-18T02:29:27;3.40;99.90
9371;DHT22;4725;48.384;8.984;2023-11-18T02:32:00;3.40;99.90
9371;DHT22;4725;48.384;8.984;2023-11-18T02:34:30;3.40;99.90
9371;DHT22;4725;48.384;8.984;2023-11-18T02:37:02;3.40;99.90
9371;DHT22;4725;48.384;8.984;2023-11-18T02:39:32;3.30;99.90
9371;DHT22;4725;48.384;8.984;2023-11-18T02:42:06;3.40;99.90
9371;DHT22;4725;48.384;8.984;2023-11-18T02:44:35;3.30;99.90
9371;DHT22;4725;48.384;8.984;2023-11-18T02:47:04;3.20;99.90
9371;DHT22;4725;48.384;8.984;2023-11-18T02:49:31;3.20;99.90
9371;DHT22;4725;48.384;8.984;2023-11-18T02:51:58;3.20;99.90
9371;DHT22;4725;48.384;8.984;2023-11-18T02:54:25;3.10;99.90
9371;DHT22;4725;48.384;8.984;2023-11-18T02:56:52;3.10;99.90
9371;DHT22;4725;48.384;8.984;2023-11-18T02:59:20;3.10;99.90
9371;DHT22;4725;48.384;8.984;2023-11-18T03:01:47;3.10;99.90
9371;DHT22;4725;48.384;8.984;2023-11-18T03:04:14;3.20;99.90
9371;DHT22;4725;48.384;8.984;2023-11-18T03:06:41;3.20;99.90
9371;DHT22;4725;48.384;8.984;2023-11-18T03:09:08;3.20;99.90
9371;DHT22;4725;48.384;8.984;2023-11-18T03:11:36;3.10;99.90
9371;DHT22;4725;48.384;8.984;2023-11-18T03:14:03;3.20;99.90
9371;DHT22;4725;48.384;8.984;2023-11-18T03:16:36;3.30;99.90
9371;DHT22;4725;48.384;8.984;2023-11-18T03:19:03;3.30;99.90
9371;DHT22;4725;48.384;8.984;2023-11-18T03:21:30;3.30;99.90
9371;DHT22;4725;48.384;8.984;2023-11-18T03:23:57;3.30;99.90
9371;DHT22;4725;48.384;8.984;2023-11-18T03:26:24;3.30;99.90
9371;DHT22;4725;48.384;8.984;2023-11-18T03:28:51;3.30;99.90
9371;DHT22;4725;48.384;8.984;2023-11-18T03:31:18;3.30;99.90
9371;DHT22;4725;48.384;8.984;2023-11-18T03:33:46;3.30;99.90
9371;DHT22;4725;48.384;8.984;2023-11-18T03:36:13;0.00;99.90
9371;DHT22;4725;48.384;8.984;2023-11-18T03:38:43;1.70;99.90
9371;DHT22;4725;48.384;8.984;2023-11-18T03:41:10;3.30;99.90
9371;DHT22;4725;48.384;8.984;2023-11-18T03:43:38;3.30;99.90
9371;DHT22;4725;48.384;8.984;2023-11-18T03:46:05;3.30;99.90
9371;DHT22;4725;48.384;8.984;2023-11-18T03:48:33;3.30;99.90
9371;DHT22;4725;48.384;8.984;2023-11-18T03:51:01;3.20;99.90
9371;DHT22;4725;48.384;8.984;2023-11-18T03:53:29;3.20;99.90
9371;DHT22;4725;48.384;8.984;2023-11-18T03:55:56;3.20;99.90
9371;DHT22;4725;48.384;8.984;2023-11-18T03:58:23;3.00;99.90
9371;DHT22;4725;48.384;8.984;2023-11-18T04:00:49;3.00;99.90
9371;DHT22;4725;48.384;8.984;2023-11-18T04:03:16;2.90;99.90
9371;DHT22;4725;48.384;8.984;2023-11-18T04:05:44;2.80;99.90
9371;DHT22;4725;48.384;8.984;2023-11-18T04:08:12;2.70;99.90
9371;DHT22;4725;48.384;8.984;2023-11-18T04:10:39;2.60;99.90
9371;DHT22;4725;48.384;8.984;2023-11-18T04:13:06;2.50;99.90
9371;DHT22;4725;48.384;8.984;2023-11-18T04:15:32;2.50;99.90
9371;DHT22;4725;48.384;8.984;2023-11-18T04:18:00;2.40;99.90
9371;DHT22;4725;48.384;8.984;2023-11-18T04:20:28;2.40;99.90
9371;DHT22;4725;48.384;8.984;2023-11-18T04:22:54;2.40;99.90
9371;DHT22;4725;48.384;8.984;2023-11-18T04:25:23;2.50;99.90
9371;DHT22;4725;48.384;8.984;2023-11-18T04:27:50;2.50;99.90
9371;DHT22;4725;48.384;8.984;2023-11-18T04:30:17;2.50;99.90
9371;DHT22;4725;48.384;8.984;2023-11-18T04:32:44;2.50;99.90
9371;DHT22;4725;48.384;8.984;2023-11-18T04:35:11;2.50;99.90
9371;DHT22;4725;48.384;8.984;2023-11-18T04:37:38;2.60;99.90
9371;DHT22;4725;48.384;8.984;2023-11-18T04:40:08;2.60;99.90
9371;DHT22;4725;48.384;8.984;2023-11-18T04:42:39;2.60;99.90
9371;DHT22;4725;48.384;8.984;2023-11-18T04:45:06;2.80;99.90
9371;DHT22;4725;48.384;8.984;2023-11-18T04:47:35;2.80;99.90
9371;DHT22;4725;48.384;8.984;2023-11-18T04:50:03;2.80;99.90
9371;DHT22;4725;48.384;8.984;2023-11-18T04:52:31;2.80;99.90
9371;DHT22;4725;48.384;8.984;2023-11-18T04:55:00;2.70;99.90
9371;DHT22;4725;48.384;8.984;2023-11-18T04:57:27;2.70;99.90
9371;DHT22;4725;48.384;8.984;2023-11-18T04:59:55;2.60;99.90
9371;DHT22;4725;48.384;8.984;2023-11-18T05:02:22;2.50;99.90
9371;DHT22;4725;48.384;8.984;2023-11-18T05:04:49;2.50;99.90
9371;DHT22;4725;48.384;8.984;2023-11-18T05:07:16;2.50;99.90
9371;DHT22;4725;48.384;8.984;2023-11-18T05:09:43;2.30;99.90
9371;DHT22;4725;48.384;8.984;2023-11-18T05:12:10;2.20;99.90
9371;DHT22;4725;48.384;8.984;2023-11-18T05:14:37;2.00;99.90
9371;DHT22;4725;48.384;8.984;2023-11-18T05:17:06;2.00;99.90
9371;DHT22;4725;48.384;8.984;2023-11-18T05:19:33;1.90;99.90
9371;DHT22;4725;48.384;8.984;2023-11-18T05:22:00;1.80;99.90
9371;DHT22;4725;48.384;8.984;2023-11-18T05:24:26;1.80;99.90
9371;DHT22;4725;48.384;8.984;2023-11-18T05:26:53;1.60;99.90
9371;DHT22;4725;48.384;8.984;2023-11-18T05:29:19;1.40;99.90
9371;DHT22;4725;48.384;8.984;2023-11-18T05:31:46;1.40;99.90
9371;DHT22;4725;48.384;8.984;2023-11-18T05:34:15;1.40;99.90
9371;DHT22;4725;48.384;8.984;2023-11-18T05:36:45;1.40;99.90
9371;DHT22;4725;48.384;8.984;2023-11-18T05:39:12;1.40;99.90
9371;DHT22;4725;48.384;8.984;2023-11-18T05:41:40;1.40;99.90
9371;DHT22;4725;48.384;8.984;2023-11-18T05:44:11;1.30;99.90
9371;DHT22;4725;48.384;8.984;2023-11-18T05:46:43;1.30;99.90
9371;DHT22;4725;48.384;8.984;2023-11-18T05:49:12;1.30;99.90
9371;DHT22;4725;48.384;8.984;2023-11-18T05:51:40;1.30;99.90
9371;DHT22;4725;48.384;8.984;2023-11-18T05:54:07;1.30;99.90
9371;DHT22;4725;48.384;8.984;2023-11-18T05:59:02;1.30;99.90
9371;DHT22;4725;48.384;8.984;2023-11-18T06:01:29;1.30;99.90
9371;DHT22;4725;48.384;8.984;2023-11-18T06:03:57;1.30;99.90
9371;DHT22;4725;48.384;8.984;2023-11-18T06:06:24;1.20;99.90
9371;DHT22;4725;48.384;8.984;2023-11-18T06:08:53;1.00;99.90
9371;DHT22;4725;48.384;8.984;2023-11-18T06:11:20;1.10;99.90
9371;DHT22;4725;48.384;8.984;2023-11-18T06:13:50;1.10;99.90
9371;DHT22;4725;48.384;8.984;2023-11-18T06:16:19;1.00;99.90
9371;DHT22;4725;48.384;8.984;2023-11-18T06:21:15;0.70;99.90
9371;DHT22;4725;48.384;8.984;2023-11-18T06:23:42;0.70;99.90
9371;DHT22;4725;48.384;8.984;2023-11-18T06:26:12;0.70;99.90
9371;DHT22;4725;48.384;8.984;2023-11-18T06:28:39;0.80;99.90
9371;DHT22;4725;48.384;8.984;2023-11-18T06:31:06;0.80;99.90
9371;DHT22;4725;48.384;8.984;2023-11-18T06:33:37;0.90;99.90
9371;DHT22;4725;48.384;8.984;2023-11-18T06:36:06;0.90;99.90
9371;DHT22;4725;48.384;8.984;2023-11-18T06:38:33;0.90;99.90
9371;DHT22;4725;48.384;8.984;2023-11-18T06:41:01;0.80;99.90
9371;DHT22;4725;48.384;8.984;2023-11-18T06:43:30;0.90;99.90
9371;DHT22;4725;48.384;8.984;2023-11-18T06:46:11;0.80;99.90
9371;DHT22;4725;48.384;8.984;2023-11-18T06:48:39;0.80;99.90
9371;DHT22;4725;48.384;8.984;2023-11-18T06:51:06;0.90;99.90
9371;DHT22;4725;48.384;8.984;2023-11-18T06:53:34;0.90;99.90
9371;DHT22;4725;48.384;8.984;2023-11-18T06:56:01;0.90;99.90
9371;DHT22;4725;48.384;8.984;2023-11-18T06:58:28;1.00;99.90
9371;DHT22;4725;48.384;8.984;2023-11-18T07:00:56;1.10;99.90
9371;DHT22;4725;48.384;8.984;2023-11-18T07:03:23;1.10;99.90
9371;DHT22;4725;48.384;8.984;2023-11-18T07:05:50;1.20;99.90
9371;DHT22;4725;48.384;8.984;2023-11-18T07:08:17;1.20;99.90
9371;DHT22;4725;48.384;8.984;2023-11-18T07:10:43;1.40;99.90
9371;DHT22;4725;48.384;8.984;2023-11-18T07:13:10;1.40;99.90
9371;DHT22;4725;48.384;8.984;2023-11-18T07:15:38;1.50;99.90
9371;DHT22;4725;48.384;8.984;2023-11-18T07:18:06;1.50;99.90
9371;DHT22;4725;48.384;8.984;2023-11-18T07:20:34;1.60;99.90
9371;DHT22;4725;48.384;8.984;2023-11-18T07:23:01;1.70;99.90
9371;DHT22;4725;48.384;8.984;2023-11-18T07:25:28;1.80;99.90
9371;DHT22;4725;48.384;8.984;2023-11-18T07:27:54;1.80;99.90
9371;DHT22;4725;48.384;8.984;2023-11-18T07:30:22;1.90;99.90
9371;DHT22;4725;48.384;8.984;2023-11-18T07:32:51;1.90;99.90
9371;DHT22;4725;48.384;8.984;2023-11-18T07:35:19;2.00;99.90
9371;DHT22;4725;48.384;8.984;2023-11-18T07:37:46;2.10;99.90
9371;DHT22;4725;48.384;8.984;2023-11-18T07:40:12;2.10;99.90
9371;DHT22;4725;48.384;8.984;2023-11-18T07:42:47;2.20;99.90
9371;DHT22;4725;48.384;8.984;2023-11-18T07:45:14;2.20;99.90
9371;DHT22;4725;48.384;8.984;2023-11-18T07:47:43;2.40;99.90
9371;DHT22;4725;48.384;8.984;2023-11-18T07:50:10;2.40;99.90
9371;DHT22;4725;48.384;8.984;2023-11-18T07:52:41;2.40;99.90
9371;DHT22;4725;48.384;8.984;2023-11-18T07:55:08;2.50;99.90
9371;DHT22;4725;48.384;8.984;2023-11-18T07:57:38;2.60;99.90
9371;DHT22;4725;48.384;8.984;2023-11-18T08:00:06;2.70;99.90
9371;DHT22;4725;48.384;8.984;2023-11-18T08:02:34;2.70;99.90
9371;DHT22;4725;48.384;8.984;2023-11-18T08:05:02;2.70;99.90
9371;DHT22;4725;48.384;8.984;2023-11-18T08:07:33;2.80;99.90
9371;DHT22;4725;48.384;8.984;2023-11-18T08:10:01;2.90;99.90
9371;DHT22;4725;48.384;8.984;2023-11-18T08:12:30;2.90;99.90
9371;DHT22;4725;48.384;8.984;2023-11-18T08:14:56;3.00;99.90
9371;DHT22;4725;48.384;8.984;2023-11-18T08:17:24;2.90;99.90
9371;DHT22;4725;48.384;8.984;2023-11-18T08:19:52;3.10;99.90
9371;DHT22;4725;48.384;8.984;2023-11-18T08:22:18;3.10;99.90
9371;DHT22;4725;48.384;8.984;2023-11-18T08:24:48;3.10;99.90
9371;DHT22;4725;48.384;8.984;2023-11-18T08:27:17;3.10;99.90
9371;DHT22;4725;48.384;8.984;2023-11-18T08:29:44;3.30;99.90
9371;DHT22;4725;48.384;8.984;2023-11-18T08:32:14;3.30;99.90
9371;DHT22;4725;48.384;8.984;2023-11-18T08:37:09;3.50;99.90
9371;DHT22;4725;48.384;8.984;2023-11-18T08:42:03;3.80;99.90
9371;DHT22;4725;48.384;8.984;2023-11-18T08:44:34;3.90;99.90
9371;DHT22;4725;48.384;8.984;2023-11-18T08:47:01;4.00;99.90
9371;DHT22;4725;48.384;8.984;2023-11-18T08:49:34;4.10;99.90
9371;DHT22;4725;48.384;8.984;2023-11-18T08:52:00;4.20;99.90
9371;DHT22;4725;48.384;8.984;2023-11-18T08:54:27;4.20;99.90
9371;DHT22;4725;48.384;8.984;2023-11-18T08:57:03;4.40;99.90
9371;DHT22;4725;48.384;8.984;2023-11-18T08:59:50;4.60;99.90
9371;DHT22;4725;48.384;8.984;2023-11-18T09:02:17;4.70;99.90
9371;DHT22;4725;48.384;8.984;2023-11-18T09:04:43;4.90;99.90
9371;DHT22;4725;48.384;8.984;2023-11-18T09:07:10;4.90;99.90
9371;DHT22;4725;48.384;8.984;2023-11-18T09:09:37;5.00;99.90
9371;DHT22;4725;48.384;8.984;2023-11-18T09:12:06;4.90;99.90
9371;DHT22;4725;48.384;8.984;2023-11-18T09:14:34;4.90;99.90
9371;DHT22;4725;48.384;8.984;2023-11-18T09:17:02;4.90;99.90
9371;DHT22;4725;48.384;8.984;2023-11-18T09:19:32;5.20;99.90
9371;DHT22;4725;48.384;8.984;2023-11-18T09:21:59;5.30;99.90
9371;DHT22;4725;48.384;8.984;2023-11-18T09:24:26;5.50;99.90
9371;DHT22;4725;48.384;8.984;2023-11-18T09:26:53;5.60;99.90
9371;DHT22;4725;48.384;8.984;2023-11-18T09:29:20;5.80;99.90
9371;DHT22;4725;48.384;8.984;2023-11-18T09:31:50;5.80;99.90
9371;DHT22;4725;48.384;8.984;2023-11-18T09:34:19;5.90;99.90
9371;DHT22;4725;48.384;8.984;2023-11-18T09:36:53;6.10;99.90
9371;DHT22;4725;48.384;8.984;2023-11-18T09:39:21;5.70;99.90
9371;DHT22;4725;48.384;8.984;2023-11-18T09:42:04;6.40;99.90
9371;DHT22;4725;48.384;8.984;2023-11-18T09:44:35;6.40;99.90
9371;DHT22;4725;48.384;8.984;2023-11-18T09:47:05;6.60;99.90
9371;DHT22;4725;48.384;8.984;2023-11-18T09:52:07;6.60;99.90
9371;DHT22;4725;48.384;8.984;2023-11-18T09:54:40;6.60;99.90
9371;DHT22;4725;48.384;8.984;2023-11-18T09:57:16;6.80;99.90
9371;DHT22;4725;48.384;8.984;2023-11-18T09:59:52;6.80;99.90
9371;DHT22;4725;48.384;8.984;2023-11-18T10:02:24;6.80;99.90
9371;DHT22;4725;48.384;8.984;2023-11-18T10:04:53;6.80;99.90
9371;DHT22;4725;48.384;8.984;2023-11-18T10:07:24;7.10;99.90
9371;DHT22;4725;48.384;8.984;2023-11-18T10:09:53;6.90;99.90
9371;DHT22;4725;48.384;8.984;2023-11-18T10:12:22;6.90;99.90
9371;DHT22;4725;48.384;8.984;2023-11-18T10:14:52;6.90;99.90
9371;DHT22;4725;48.384;8.984;2023-11-18T10:17:20;6.90;99.90
9371;DHT22;4725;48.384;8.984;2023-11-18T10:19:56;7.00;99.90
9371;DHT22;4725;48.384;8.984;2023-11-18T10:22:26;6.90;99.90
9371;DHT22;4725;48.384;8.984;2023-11-18T10:24:53;7.00;99.90
9371;DHT22;4725;48.384;8.984;2023-11-18T10:27:22;7.10;99.90
9371;DHT22;4725;48.384;8.984;2023-11-18T10:29:51;7.10;99.90
9371;DHT22;4725;48.384;8.984;2023-11-18T10:32:21;7.10;99.90
9371;DHT22;4725;48.384;8.984;2023-11-18T10:34:53;7.20;99.90
9371;DHT22;4725;48.384;8.984;2023-11-18T10:37:23;7.30;99.90
9371;DHT22;4725;48.384;8.984;2023-11-18T10:39:50;7.30;99.90
9371;DHT22;4725;48.384;8.984;2023-11-18T10:42:18;7.30;99.90
9371;DHT22;4725;48.384;8.984;2023-11-18T10:44:57;7.60;99.90
9371;DHT22;4725;48.384;8.984;2023-11-18T10:47:25;7.60;99.90
9371;DHT22;4725;48.384;8.984;2023-11-18T10:49:53;8.10;99.90
9371;DHT22;4725;48.384;8.984;2023-11-18T10:52:23;8.10;99.90
9371;DHT22;4725;48.384;8.984;2023-11-18T10:54:51;8.30;99.90
9371;DHT22;4725;48.384;8.984;2023-11-18T10:57:20;8.00;99.90
9371;DHT22;4725;48.384;8.984;2023-11-18T10:59:58;8.10;99.90
9371;DHT22;4725;48.384;8.984;2023-11-18T11:02:28;8.10;99.90
9371;DHT22;4725;48.384;8.984;2023-11-18T11:05:00;8.10;99.90
9371;DHT22;4725;48.384;8.984;2023-11-18T11:07:29;8.00;99.90
9371;DHT22;4725;48.384;8.984;2023-11-18T11:09:59;7.80;99.90
9371;DHT22;4725;48.384;8.984;2023-11-18T11:12:33;7.80;99.90
9371;DHT22;4725;48.384;8.984;2023-11-18T11:15:05;7.70;99.90
9371;DHT22;4725;48.384;8.984;2023-11-18T11:17:40;7.70;99.90
9371;DHT22;4725;48.384;8.984;2023-11-18T11:20:14;7.50;99.90
9371;DHT22;4725;48.384;8.984;2023-11-18T11:23:00;7.60;99.90
9371;DHT22;4725;48.384;8.984;2023-11-18T11:25:36;7.70;99.90
9371;DHT22;4725;48.384;8.984;2023-11-18T11:28:11;7.70;99.90
9371;DHT22;4725;48.384;8.984;2023-11-18T11:30:43;7.80;99.90
9371;DHT22;4725;48.384;8.984;2023-11-18T11:33:17;7.90;99.90
9371;DHT22;4725;48.384;8.984;2023-11-18T11:35:52;7.90;99.90
9371;DHT22;4725;48.384;8.984;2023-11-18T11:38:24;7.70;99.90
9371;DHT22;4725;48.384;8.984;2023-11-18T11:40:53;7.70;99.90
9371;DHT22;4725;48.384;8.984;2023-11-18T11:43:21;7.70;99.90
9371;DHT22;4725;48.384;8.984;2023-11-18T11:45:49;7.80;99.90
9371;DHT22;4725;48.384;8.984;2023-11-18T11:48:18;7.90;99.90
9371;DHT22;4725;48.384;8.984;2023-11-18T11:51:06;8.00;99.90
9371;DHT22;4725;48.384;8.984;2023-11-18T11:53:45;7.90;99.90
9371;DHT22;4725;48.384;8.984;2023-11-18T11:56:14;7.80;99.90
9371;DHT22;4725;48.384;8.984;2023-11-18T11:58:46;7.90;99.90
9371;DHT22;4725;48.384;8.984;2023-11-18T12:01:24;7.90;99.90
9371;DHT22;4725;48.384;8.984;2023-11-18T12:03:56;7.90;99.90
9371;DHT22;4725;48.384;8.984;2023-11-18T12:06:24;7.90;99.90
9371;DHT22;4725;48.384;8.984;2023-11-18T12:11:20;7.80;99.90
9371;DHT22;4725;48.384;8.984;2023-11-18T12:14:01;7.80;99.90
9371;DHT22;4725;48.384;8.984;2023-11-18T12:16:57;7.80;99.90
9371;DHT22;4725;48.384;8.984;2023-11-18T12:19:30;7.80;99.90
9371;DHT22;4725;48.384;8.984;2023-11-18T12:21:58;7.70;99.90
9371;DHT22;4725;48.384;8.984;2023-11-18T12:24:28;7.60;99.90
9371;DHT22;4725;48.384;8.984;2023-11-18T12:26:59;7.50;99.90
9371;DHT22;4725;48.384;8.984;2023-11-18T12:29:31;7.60;99.90
9371;DHT22;4725;48.384;8.984;2023-11-18T12:31:59;7.60;99.90
9371;DHT22;4725;48.384;8.984;2023-11-18T12:34:49;7.50;99.90
9371;DHT22;4725;48.384;8.984;2023-11-18T12:37:41;7.50;99.90
9371;DHT22;4725;48.384;8.984;2023-11-18T12:40:45;7.50;99.90
9371;DHT22;4725;48.384;8.984;2023-11-18T12:43:17;7.40;99.90
9371;DHT22;4725;48.384;8.984;2023-11-18T12:46:15;7.30;99.90
9371;DHT22;4725;48.384;8.984;2023-11-18T12:48:54;7.30;99.90
9371;DHT22;4725;48.384;8.984;2023-11-18T12:51:25;7.20;99.90
9371;DHT22;4725;48.384;8.984;2023-11-18T12:53:52;7.10;99.90
9371;DHT22;4725;48.384;8.984;2023-11-18T12:56:21;4.20;99.90
9371;DHT22;4725;48.384;8.984;2023-11-18T12:58:49;7.10;99.90
9371;DHT22;4725;48.384;8.984;2023-11-18T13:01:16;7.10;99.90
9371;DHT22;4725;48.384;8.984;2023-11-18T13:03:44;7.10;99.90
9371;DHT22;4725;48.384;8.984;2023-11-18T13:06:12;7.00;99.90
9371;DHT22;4725;48.384;8.984;2023-11-18T13:08:40;7.10;99.90
9371;DHT22;4725;48.384;8.984;2023-11-18T13:11:07;7.10;99.90
9371;DHT22;4725;48.384;8.984;2023-11-18T13:13:42;7.10;99.90
9371;DHT22;4725;48.384;8.984;2023-11-18T13:16:09;7.10;99.90
9371;DHT22;4725;48.384;8.984;2023-11-18T13:18:43;7.20;99.90
9371;DHT22;4725;48.384;8.984;2023-11-18T13:21:16;7.20;99.90
9371;DHT22;4725;48.384;8.984;2023-11-18T13:23:47;7.20;99.90
9371;DHT22;4725;48.384;8.984;2023-11-18T13:26:16;7.30;99.90
9371;DHT22;4725;48.384;8.984;2023-11-18T13:28:45;7.30;99.90
9371;DHT22;4725;48.384;8.984;2023-11-18T13:31:12;7.10;99.90
9371;DHT22;4725;48.384;8.984;2023-11-18T13:33:42;7.10;99.90
9371;DHT22;4725;48.384;8.984;2023-11-18T13:36:10;7.10;99.90
9371;DHT22;4725;48.384;8.984;2023-11-18T13:38:37;7.00;99.90
9371;DHT22;4725;48.384;8.984;2023-11-18T13:41:04;7.00;99.90
9371;DHT22;4725;48.384;8.984;2023-11-18T13:43:45;6.90;99.90
9371;DHT22;4725;48.384;8.984;2023-11-18T13:46:13;6.80;99.90
9371;DHT22;4725;48.384;8.984;2023-11-18T13:48:41;6.60;99.90
9371;DHT22;4725;48.384;8.984;2023-11-18T13:51:09;6.60;99.90
9371;DHT22;4725;48.384;8.984;2023-11-18T13:53:39;6.60;99.90
9371;DHT22;4725;48.384;8.984;2023-11-18T13:56:09;6.60;99.90
9371;DHT22;4725;48.384;8.984;2023-11-18T13:58:36;9.30;99.90
9371;DHT22;4725;48.384;8.984;2023-11-18T14:01:06;6.60;99.90
9371;DHT22;4725;48.384;8.984;2023-11-18T14:03:35;6.70;99.90
9371;DHT22;4725;48.384;8.984;2023-11-18T14:06:06;6.70;99.90
9371;DHT22;4725;48.384;8.984;2023-11-18T14:08:36;6.70;99.90
9371;DHT22;4725;48.384;8.984;2023-11-18T14:11:03;6.70;99.90
9371;DHT22;4725;48.384;8.984;2023-11-18T14:13:31;6.60;99.90
9371;DHT22;4725;48.384;8.984;2023-11-18T14:16:00;6.60;99.90
9371;DHT22;4725;48.384;8.984;2023-11-18T14:18:28;6.60;99.90
9371;DHT22;4725;48.384;8.984;2023-11-18T14:20:56;6.60;99.90
9371;DHT22;4725;48.384;8.984;2023-11-18T14:23:23;6.50;99.90
9371;DHT22;4725;48.384;8.984;2023-11-18T14:25:51;6.50;99.90
9371;DHT22;4725;48.384;8.984;2023-11-18T14:28:18;6.40;99.90
9371;DHT22;4725;48.384;8.984;2023-11-18T14:30:50;6.40;99.90
9371;DHT22;4725;48.384;8.984;2023-11-18T14:33:17;6.30;99.90
9371;DHT22;4725;48.384;8.984;2023-11-18T14:35:46;6.40;99.90
9371;DHT22;4725;48.384;8.984;2023-11-18T14:38:13;6.30;99.90
9371;DHT22;4725;48.384;8.984;2023-11-18T14:40:40;6.20;99.90
9371;DHT22;4725;48.384;8.984;2023-11-18T14:43:07;6.30;99.90
9371;DHT22;4725;48.384;8.984;2023-11-18T14:45:34;6.20;99.90
9371;DHT22;4725;48.384;8.984;2023-11-18T14:48:03;6.20;99.90
9371;DHT22;4725;48.384;8.984;2023-11-18T14:50:29;6.20;99.90
9371;DHT22;4725;48.384;8.984;2023-11-18T14:52:58;6.20;99.90
9371;DHT22;4725;48.384;8.984;2023-11-18T14:55:26;6.20;99.90
9371;DHT22;4725;48.384;8.984;2023-11-18T14:57:53;6.20;99.90
9371;DHT22;4725;48.384;8.984;2023-11-18T15:00:21;6.20;99.90
9371;DHT22;4725;48.384;8.984;2023-11-18T15:02:51;6.20;99.90
9371;DHT22;4725;48.384;8.984;2023-11-18T15:05:20;6.20;99.90
9371;DHT22;4725;48.384;8.984;2023-11-18T15:07:49;6.20;99.90
9371;DHT22;4725;48.384;8.984;2023-11-18T15:10:18;6.10;99.90
9371;DHT22;4725;48.384;8.984;2023-11-18T15:12:47;6.00;99.90
9371;DHT22;4725;48.384;8.984;2023-11-18T15:15:14;6.10;99.90
9371;DHT22;4725;48.384;8.984;2023-11-18T15:17:46;6.10;99.90
9371;DHT22;4725;48.384;8.984;2023-11-18T15:20:15;6.20;99.90
9371;DHT22;4725;48.384;8.984;2023-11-18T15:22:44;6.10;99.90
9371;DHT22;4725;48.384;8.984;2023-11-18T15:25:11;6.10;99.90
9371;DHT22;4725;48.384;8.984;2023-11-18T15:27:41;6.10;99.90
9371;DHT22;4725;48.384;8.984;2023-11-18T15:30:09;6.10;99.90
9371;DHT22;4725;48.384;8.984;2023-11-18T15:32:40;6.00;99.90
9371;DHT22;4725;48.384;8.984;2023-11-18T15:35:08;6.00;99.90
9371;DHT22;4725;48.384;8.984;2023-11-18T15:37:36;6.00;99.90
9371;DHT22;4725;48.384;8.984;2023-11-18T15:40:05;5.90;99.90
9371;DHT22;4725;48.384;8.984;2023-11-18T15:42:41;5.90;99.90
9371;DHT22;4725;48.384;8.984;2023-11-18T15:45:10;6.00;99.90
9371;DHT22;4725;48.384;8.984;2023-11-18T15:47:38;6.00;99.90
9371;DHT22;4725;48.384;8.984;2023-11-18T15:50:06;6.00;99.90
9371;DHT22;4725;48.384;8.984;2023-11-18T15:52:33;4.10;99.90
9371;DHT22;4725;48.384;8.984;2023-11-18T15:55:01;8.70;99.90
9371;DHT22;4725;48.384;8.984;2023-11-18T15:57:36;6.00;99.90
9371;DHT22;4725;48.384;8.984;2023-11-18T16:00:04;6.00;99.90
9371;DHT22;4725;48.384;8.984;2023-11-18T16:02:34;6.00;99.90
9371;DHT22;4725;48.384;8.984;2023-11-18T16:05:01;5.90;99.90
9371;DHT22;4725;48.384;8.984;2023-11-18T16:07:29;5.90;99.90
9371;DHT22;4725;48.384;8.984;2023-11-18T16:09:56;5.90;99.90
9371;DHT22;4725;48.384;8.984;2023-11-18T16:12:25;5.90;99.90
9371;DHT22;4725;48.384;8.984;2023-11-18T16:14:54;5.90;99.90
9371;DHT22;4725;48.384;8.984;2023-11-18T16:17:22;5.90;99.90
9371;DHT22;4725;48.384;8.984;2023-11-18T16:19:49;5.90;99.90
9371;DHT22;4725;48.384;8.984;2023-11-18T16:22:16;5.90;99.90
9371;DHT22;4725;48.384;8.984;2023-11-18T16:24:43;5.90;99.90
9371;DHT22;4725;48.384;8.984;2023-11-18T16:27:12;6.00;99.90
9371;DHT22;4725;48.384;8.984;2023-11-18T16:29:40;6.00;99.90
9371;DHT22;4725;48.384;8.984;2023-11-18T16:32:07;6.00;99.90
9371;DHT22;4725;48.384;8.984;2023-11-18T16:34:36;6.10;99.90
9371;DHT22;4725;48.384;8.984;2023-11-18T16:37:03;6.00;99.90
9371;DHT22;4725;48.384;8.984;2023-11-18T16:39:31;6.00;99.90
9371;DHT22;4725;48.384;8.984;2023-11-18T16:41:58;6.00;99.90
9371;DHT22;4725;48.384;8.984;2023-11-18T16:44:25;6.10;99.90